createdAt,value
2023-01-29T00:01:16.565Z,5.17
2023-01-29T00:05:27.559Z,5.17
2023-01-29T00:09:29.548Z,5.07
2023-01-29T00:13:31.321Z,5.07
2023-01-29T00:17:32.757Z,5.15
2023-01-29T00:21:34.620Z,5.25
2023-01-29T00:25:36.059Z,5.28
2023-01-29T00:29:37.525Z,5.30
2023-01-29T00:33:39.392Z,5.47
2023-01-29T00:37:42.600Z,5.71
2023-01-29T00:42:02.453Z,5.78
2023-01-29T00:46:06.427Z,5.61
2023-01-29T00:50:12.170Z,5.79
2023-01-29T00:54:13.601Z,5.72
2023-01-29T00:58:15.579Z,5.79
2023-01-29T01:02:35.634Z,5.65
2023-01-29T01:06:40.486Z,5.63
2023-01-29T01:10:41.906Z,5.58
2023-01-29T01:14:44.495Z,6.05
2023-01-29T01:18:48.306Z,5.85
2023-01-29T01:22:50.189Z,5.89
2023-01-29T01:26:51.762Z,5.93
2023-01-29T01:30:53.468Z,5.97
2023-01-29T01:34:54.931Z,6.02
2023-01-29T01:38:56.370Z,5.97
2023-01-29T01:42:59.763Z,5.82
2023-01-29T01:47:01.921Z,5.91
2023-01-29T01:51:06.284Z,5.98
2023-01-29T01:55:12.199Z,6.01
2023-01-29T01:59:18.199Z,6.08
2023-01-29T02:03:41.531Z,5.95
2023-01-29T02:08:04.897Z,6.07
2023-01-29T02:12:12.381Z,5.85
2023-01-29T02:16:13.849Z,5.72
2023-01-29T02:20:24.395Z,5.85
2023-01-29T02:24:59.508Z,5.89
2023-01-29T02:29:25.212Z,5.95
2023-01-29T02:34:00.918Z,5.98
2023-01-29T02:38:24.217Z,5.95
2023-01-29T02:42:35.782Z,6.26
2023-01-29T02:46:45.826Z,6.33
2023-01-29T02:50:57.858Z,6.38
2023-01-29T02:55:09.307Z,6.30
2023-01-29T02:59:25.357Z,6.26
2023-01-29T03:03:33.530Z,6.38
2023-01-29T03:07:42.570Z,6.28
2023-01-29T03:11:52.676Z,6.41
2023-01-29T03:16:04.498Z,6.23
2023-01-29T03:20:25.390Z,6.08
2023-01-29T03:25:09.025Z,6.28
2023-01-29T03:29:31.014Z,6.34
2023-01-29T03:33:42.144Z,6.18
2023-01-29T03:37:47.441Z,6.47
2023-01-29T03:42:02.840Z,6.39
2023-01-29T03:46:18.659Z,6.24
2023-01-29T03:50:48.631Z,6.66
2023-01-29T03:55:01.207Z,6.53
2023-01-29T03:59:18.369Z,6.55
2023-01-29T04:04:27.267Z,6.67
2023-01-29T04:08:32.237Z,6.64
2023-01-29T04:12:54.369Z,6.63
2023-01-29T04:16:57.656Z,6.67
2023-01-29T04:21:15.355Z,6.50
2023-01-29T04:25:29.164Z,6.51
2023-01-29T04:29:45.677Z,6.71
2023-01-29T04:34:16.027Z,6.50
2023-01-29T04:38:34.503Z,6.60
2023-01-29T04:42:49.784Z,6.60
2023-01-29T04:47:16.935Z,6.57
2023-01-29T04:52:00.433Z,7.00
2023-01-29T04:56:18.586Z,6.66
2023-01-29T05:00:40.560Z,6.54
2023-01-29T05:04:44.693Z,6.68
2023-01-29T05:08:49.663Z,6.73
2023-01-29T05:13:02.680Z,6.78
2023-01-29T05:17:13.198Z,6.82
2023-01-29T05:21:14.662Z,6.80
2023-01-29T05:25:25.170Z,6.71
2023-01-29T05:29:26.603Z,6.80
2023-01-29T05:33:30.459Z,6.65
2023-01-29T05:37:31.984Z,6.77
2023-01-29T05:41:33.425Z,6.95
2023-01-29T05:45:34.968Z,6.92
2023-01-29T05:49:38.639Z,6.75
2023-01-29T05:53:40.212Z,6.76
2023-01-29T05:57:41.675Z,7.00
2023-01-29T06:01:43.237Z,6.78
2023-01-29T06:05:44.764Z,6.75
2023-01-29T06:09:46.185Z,6.87
2023-01-29T06:13:48.098Z,6.98
2023-01-29T06:17:49.527Z,6.84
2023-01-29T06:21:50.949Z,6.58
2023-01-29T06:25:52.343Z,6.72
2023-01-29T06:29:53.798Z,6.68
2023-01-29T06:33:55.306Z,6.82
2023-01-29T06:37:56.876Z,6.73
2023-01-29T06:41:58.299Z,6.69
2023-01-29T06:46:00.028Z,6.72
2023-01-29T06:50:02.311Z,6.92
2023-01-29T06:54:03.950Z,6.91
2023-01-29T06:58:10.042Z,6.89
2023-01-29T07:02:11.538Z,6.95
2023-01-29T07:06:13.066Z,6.99
2023-01-29T07:10:15.185Z,6.81
2023-01-29T07:14:16.703Z,6.99
2023-01-29T07:18:18.124Z,7.08
2023-01-29T07:22:19.545Z,7.00
2023-01-29T07:26:21.004Z,7.14
2023-01-29T07:30:22.494Z,7.09
2023-01-29T07:34:23.924Z,7.17
2023-01-29T07:38:25.834Z,7.07
2023-01-29T07:42:27.291Z,6.86
2023-01-29T07:46:28.762Z,6.59
2023-01-29T07:50:31.320Z,6.88
2023-01-29T07:54:32.742Z,6.68
2023-01-29T07:58:36.430Z,6.85
2023-01-29T08:02:38.258Z,6.83
2023-01-29T08:06:39.772Z,7.02
2023-01-29T08:10:41.902Z,7.11
2023-01-29T08:14:43.407Z,7.18
2023-01-29T08:18:47.636Z,7.15
2023-01-29T08:22:49.611Z,7.04
2023-01-29T08:26:51.020Z,7.10
2023-01-29T08:30:52.979Z,7.24
2023-01-29T08:34:54.513Z,6.93
2023-01-29T08:38:55.992Z,7.08
2023-01-29T08:43:06.153Z,7.10
2023-01-29T08:47:08.504Z,7.03
2023-01-29T08:51:10.003Z,7.22
2023-01-29T08:55:11.975Z,7.28
2023-01-29T08:59:13.548Z,7.14
2023-01-29T09:03:15.086Z,7.25
2023-01-29T09:07:16.491Z,7.22
2023-01-29T09:11:18.038Z,7.13
2023-01-29T09:15:19.785Z,7.36
2023-01-29T09:19:21.339Z,7.24
2023-01-29T09:23:22.829Z,7.09
2023-01-29T09:27:24.272Z,7.06
2023-01-29T09:31:25.741Z,7.09
2023-01-29T09:35:27.280Z,6.98
2023-01-29T09:39:28.766Z,7.16
2023-01-29T09:43:42.832Z,7.25
2023-01-29T09:47:44.728Z,7.36
2023-01-29T09:51:51.944Z,7.44
2023-01-29T09:56:02.621Z,7.62
2023-01-29T10:00:04.881Z,7.45
2023-01-29T10:04:22.125Z,7.80
2023-01-29T10:08:59.959Z,7.40
2023-01-29T10:13:35.738Z,7.50
2023-01-29T10:18:09.545Z,7.48
2023-01-29T10:22:19.798Z,7.39
2023-01-29T10:26:24.675Z,7.04
2023-01-29T10:30:44.261Z,7.30
2023-01-29T10:35:01.205Z,7.38
2023-01-29T10:39:02.851Z,7.52
2023-01-29T10:43:24.536Z,7.40
2023-01-29T10:47:41.370Z,7.27
2023-01-29T10:52:13.852Z,7.33
2023-01-29T10:56:33.272Z,7.32
2023-01-29T11:00:39.886Z,7.31
2023-01-29T11:04:41.371Z,7.27
2023-01-29T11:08:54.025Z,7.30
2023-01-29T11:12:56.600Z,7.27
2023-01-29T11:16:59.130Z,7.22
2023-01-29T11:21:04.257Z,7.65
2023-01-29T11:25:17.806Z,7.64
2023-01-29T11:29:39.706Z,7.60
2023-01-29T11:33:41.302Z,7.39
2023-01-29T11:37:45.085Z,7.36
2023-01-29T11:41:55.456Z,7.75
2023-01-29T11:46:11.542Z,7.39
2023-01-29T11:50:26.504Z,7.29
2023-01-29T11:55:02.224Z,7.06
2023-01-29T11:59:05.116Z,7.25
2023-01-29T12:03:23.859Z,7.18
2023-01-29T12:07:26.640Z,7.47
2023-01-29T12:11:33.345Z,7.53
2023-01-29T12:15:36.034Z,7.49
2023-01-29T12:19:46.318Z,6.97
2023-01-29T12:23:57.746Z,6.96
2023-01-29T12:28:09.445Z,7.03
2023-01-29T12:32:29.902Z,7.01
2023-01-29T12:36:42.436Z,7.19
2023-01-29T12:40:55.253Z,7.15
2023-01-29T12:45:03.411Z,7.15
2023-01-29T12:49:12.953Z,7.07
2023-01-29T12:53:32.491Z,7.20
2023-01-29T12:57:46.040Z,7.22
2023-01-29T13:01:54.556Z,7.12
2023-01-29T13:06:17.113Z,7.03
2023-01-29T13:10:23.765Z,7.28
2023-01-29T13:14:42.503Z,7.01
2023-01-29T13:18:47.719Z,7.38
2023-01-29T13:22:50.727Z,7.40
2023-01-29T13:26:52.343Z,7.46
2023-01-29T13:31:10.754Z,7.64
2023-01-29T13:35:14.996Z,7.44
2023-01-29T13:39:22.625Z,7.38
2023-01-29T13:43:24.184Z,7.39
2023-01-29T13:47:29.164Z,7.32
2023-01-29T13:51:36.402Z,7.34
2023-01-29T13:55:39.731Z,6.99
2023-01-29T13:59:52.945Z,7.28
2023-01-29T14:04:04.942Z,7.19
2023-01-29T14:08:12.912Z,7.27
2023-01-29T14:12:23.014Z,7.39
2023-01-29T14:16:24.435Z,7.07
2023-01-29T14:20:48.488Z,7.50
2023-01-29T14:24:55.583Z,7.39
2023-01-29T14:29:14.451Z,7.30
2023-01-29T14:33:26.502Z,7.47
2023-01-29T14:37:38.824Z,7.69
2023-01-29T14:41:42.914Z,7.46
2023-01-29T14:45:45.061Z,7.33
2023-01-29T14:49:54.687Z,7.42
2023-01-29T14:54:02.384Z,7.21
2023-01-29T14:58:04.762Z,7.23
2023-01-29T15:02:38.306Z,7.49
2023-01-29T15:06:49.498Z,7.43
2023-01-29T15:11:13.249Z,7.45
2023-01-29T15:15:33.229Z,7.15
2023-01-29T15:19:37.873Z,7.09
2023-01-29T15:23:44.095Z,7.34
2023-01-29T15:27:45.911Z,7.21
2023-01-29T15:31:48.061Z,7.05
2023-01-29T15:36:06.702Z,7.17
2023-01-29T15:40:16.526Z,7.14
2023-01-29T15:44:23.590Z,7.10
2023-01-29T15:48:33.006Z,7.19
2023-01-29T15:52:35.145Z,7.15
2023-01-29T15:56:55.904Z,7.04
2023-01-29T16:01:00.051Z,7.13
2023-01-29T16:05:02.604Z,7.08
2023-01-29T16:09:05.853Z,6.77
2023-01-29T16:13:16.795Z,6.79
2023-01-29T16:17:27.166Z,6.61
2023-01-29T16:21:34.093Z,6.94
2023-01-29T16:25:38.443Z,6.75
2023-01-29T16:29:40.012Z,6.71
2023-01-29T16:33:45.266Z,6.48
2023-01-29T16:37:50.395Z,6.48
2023-01-29T16:42:10.616Z,6.39
2023-01-29T16:46:25.998Z,6.33
2023-01-29T16:50:46.197Z,6.47
2023-01-29T16:55:19.630Z,6.31
2023-01-29T16:59:36.462Z,6.47
2023-01-29T17:03:39.275Z,6.44
2023-01-29T17:07:46.216Z,6.71
2023-01-29T17:11:50.294Z,6.68
2023-01-29T17:15:51.790Z,6.38
2023-01-29T17:19:53.320Z,6.35
2023-01-29T17:23:54.922Z,6.49
2023-01-29T17:27:56.427Z,6.61
2023-01-29T17:32:00.040Z,6.52
2023-01-29T17:36:01.843Z,6.34
2023-01-29T17:40:05.397Z,6.28
2023-01-29T17:44:07.004Z,6.28
2023-01-29T17:48:22.198Z,6.47
2023-01-29T17:52:23.671Z,6.26
2023-01-29T17:56:27.524Z,6.16
2023-01-29T18:00:29.773Z,6.20
2023-01-29T18:04:31.282Z,6.45
2023-01-29T18:08:35.381Z,6.20
2023-01-29T18:12:36.815Z,6.22
2023-01-29T18:16:40.216Z,6.27
2023-01-29T18:20:42.564Z,6.32
2023-01-29T18:24:44.002Z,6.35
2023-01-29T18:28:45.570Z,6.26
2023-01-29T18:32:47.501Z,6.28
2023-01-29T18:36:49.035Z,6.03
2023-01-29T18:40:50.512Z,5.95
2023-01-29T18:44:52.027Z,5.92
2023-01-29T18:48:53.996Z,5.92
2023-01-29T18:52:55.625Z,5.92
2023-01-29T18:57:13.156Z,5.92
2023-01-29T19:01:18.610Z,5.88
2023-01-29T19:05:22.745Z,5.87
2023-01-29T19:09:24.810Z,6.22
2023-01-29T19:13:26.893Z,5.95
2023-01-29T19:17:28.449Z,6.11
2023-01-29T19:21:30.420Z,6.18
2023-01-29T19:25:31.890Z,6.16
2023-01-29T19:29:34.248Z,6.30
2023-01-29T19:33:35.688Z,6.27
2023-01-29T19:37:37.241Z,6.09
2023-01-29T19:41:38.692Z,6.40
2023-01-29T19:45:50.265Z,6.29
2023-01-29T19:49:52.110Z,6.22
2023-01-29T19:53:53.636Z,5.99
2023-01-29T19:57:56.977Z,6.26
2023-01-29T20:01:58.453Z,6.12
2023-01-29T20:06:03.852Z,6.01
2023-01-29T20:10:16.837Z,6.25
2023-01-29T20:14:18.672Z,6.38
2023-01-29T20:18:20.277Z,6.28
2023-01-29T20:22:21.697Z,6.41
2023-01-29T20:26:23.205Z,6.42
2023-01-29T20:30:24.772Z,6.27
2023-01-29T20:34:26.328Z,6.24
2023-01-29T20:38:31.685Z,6.39
2023-01-29T20:42:33.264Z,6.29
2023-01-29T20:46:35.353Z,6.34
2023-01-29T20:50:36.940Z,6.24
2023-01-29T20:54:38.584Z,6.22
2023-01-29T20:58:43.289Z,6.27
2023-01-29T21:02:45.844Z,6.14
2023-01-29T21:06:47.283Z,6.14
2023-01-29T21:10:51.631Z,6.13
2023-01-29T21:14:53.021Z,6.32
2023-01-29T21:18:55.868Z,6.06
2023-01-29T21:22:57.309Z,6.05
2023-01-29T21:26:58.735Z,6.08
2023-01-29T21:31:10.018Z,6.22
2023-01-29T21:35:11.498Z,6.19
2023-01-29T21:39:20.859Z,6.42
2023-01-29T21:43:22.321Z,6.40
2023-01-29T21:47:23.869Z,6.25
2023-01-29T21:51:25.269Z,6.21
2023-01-29T21:55:26.937Z,6.21
2023-01-29T21:59:28.378Z,6.04
2023-01-29T22:03:30.006Z,6.20
2023-01-29T22:07:31.552Z,5.98
2023-01-29T22:11:32.958Z,5.94
2023-01-29T22:15:34.608Z,5.82
2023-01-29T22:19:36.074Z,5.81
2023-01-29T22:23:37.974Z,5.70
2023-01-29T22:27:39.384Z,5.94
2023-01-29T22:31:40.825Z,6.04
2023-01-29T22:35:42.337Z,5.81
2023-01-29T22:39:44.187Z,5.78
2023-01-29T22:43:45.704Z,5.95
2023-01-29T22:47:47.238Z,5.99
2023-01-29T22:52:08.641Z,5.89
2023-01-29T22:56:11.524Z,5.78
2023-01-29T23:00:13.220Z,5.97
2023-01-29T23:04:14.720Z,5.98
2023-01-29T23:08:16.191Z,5.89
2023-01-29T23:12:17.642Z,5.94
2023-01-29T23:16:22.172Z,6.06
2023-01-29T23:20:23.774Z,6.21
2023-01-29T23:24:25.261Z,6.16
2023-01-29T23:28:26.683Z,6.26
2023-01-29T23:32:28.165Z,6.13
2023-01-29T23:36:29.585Z,6.20
2023-01-29T23:40:31.031Z,6.28
2023-01-29T23:44:32.474Z,6.11
2023-01-29T23:48:34.406Z,6.25
2023-01-29T23:52:36.165Z,6.12
2023-01-29T23:56:37.788Z,6.31
